Time;durP1;ratioP1;P1;durP2;ratioP2;P2;SDS_P1;SDS_P2;PMS_P1;PMS_P2;Temp;Humidity;BMP_temperature;BMP_pressure;BME280_temperature;BME280_humidity;BME280_pressure;Samples;Min_cycle;Max_cycle;Signal;HPM_P1;HPM_P2
2022/10/18 00:01:05;;;;;;;6.30;5.33;;;15.00;99.90;;;;;;5036969;28;20562;-64
2022/10/18 00:03:36;;;;;;;6.40;5.30;;;14.90;99.90;;;;;;5036904;28;20537;-64
2022/10/18 00:06:07;;;;;;;6.10;5.50;;;15.00;99.90;;;;;;5036372;28;20521;-64
2022/10/18 00:08:36;;;;;;;8.27;5.47;;;15.10;99.90;;;;;;5036690;28;20470;-64
2022/10/18 00:11:04;;;;;;;7.10;5.10;;;15.10;99.90;;;;;;5039139;28;20963;-64
2022/10/18 00:13:33;;;;;;;7.10;6.40;;;15.10;99.90;;;;;;5040426;28;20471;-63
2022/10/18 00:16:09;;;;;;;6.43;5.80;;;15.00;99.90;;;;;;5039584;28;20498;-63
2022/10/18 00:18:37;;;;;;;8.50;6.20;;;15.00;99.90;;;;;;5039889;28;20553;-63
2022/10/18 00:21:06;;;;;;;6.50;5.90;;;15.00;99.90;;;;;;5040159;28;20466;-63
2022/10/18 00:23:36;;;;;;;8.40;6.00;;;15.00;99.90;;;;;;5039884;28;20505;-63
2022/10/18 00:26:07;;;;;;;7.23;5.37;;;15.00;99.90;;;;;;5039968;28;20992;-62
2022/10/18 00:28:38;;;;;;;7.03;5.90;;;15.00;99.90;;;;;;5039275;28;20505;-62
2022/10/18 00:31:13;;;;;;;6.03;5.43;;;15.00;99.90;;;;;;5039958;28;20491;-62
2022/10/18 00:33:44;;;;;;;6.17;5.40;;;15.00;99.90;;;;;;5039039;28;20477;-62
2022/10/18 00:36:13;;;;;;;10.63;6.37;;;15.00;99.90;;;;;;5039290;28;20513;-62
2022/10/18 00:38:43;;;;;;;6.13;5.53;;;15.00;99.90;;;;;;5039700;28;20542;-62
2022/10/18 00:41:13;;;;;;;7.17;5.90;;;15.00;99.90;;;;;;5039991;28;20557;-62
2022/10/18 00:44:01;;;;;;;6.80;5.80;;;15.00;99.90;;;;;;5039602;28;20463;-62
2022/10/18 00:46:32;;;;;;;6.57;5.87;;;15.00;99.90;;;;;;5039408;28;20558;-62
2022/10/18 00:49:02;;;;;;;8.37;6.43;;;15.00;99.90;;;;;;5039539;28;20474;-63
2022/10/18 00:51:32;;;;;;;6.70;6.10;;;15.00;99.90;;;;;;5039310;28;20956;-63
2022/10/18 00:54:01;;;;;;;8.53;7.17;;;15.00;99.90;;;;;;5039288;28;20438;-63
2022/10/18 00:56:29;;;;;;;10.07;6.80;;;15.00;99.90;;;;;;5038980;28;20444;-63
2022/10/18 00:58:57;;;;;;;6.73;5.53;;;15.10;99.90;;;;;;5038532;28;20842;-62
2022/10/18 01:01:27;;;;;;;7.10;6.40;;;15.10;99.90;;;;;;5039442;28;20463;-62
2022/10/18 01:03:55;;;;;;;8.53;6.70;;;15.10;99.90;;;;;;5038893;28;20763;-62
2022/10/18 01:06:23;;;;;;;9.73;7.77;;;15.10;99.90;;;;;;5039102;28;20889;-62
2022/10/18 01:09:06;;;;;;;10.47;9.37;;;15.10;99.90;;;;;;5038953;28;20473;-62
2022/10/18 01:11:51;;;;;;;12.10;11.00;;;15.10;99.90;;;;;;5038926;28;20497;-62
2022/10/18 01:14:27;;;;;;;15.87;14.20;;;15.10;99.90;;;;;;5038635;28;20463;-62
2022/10/18 01:17:00;;;;;;;17.97;15.83;;;15.10;99.90;;;;;;5038638;28;20490;-62
2022/10/18 01:19:50;;;;;;;21.77;19.17;;;15.10;99.90;;;;;;5038427;28;20474;-62
2022/10/18 01:22:23;;;;;;;21.47;19.17;;;15.10;99.90;;;;;;5037617;28;20463;-62
2022/10/18 01:25:25;;;;;;;21.73;19.63;;;15.10;99.90;;;;;;5038583;28;20463;-62
2022/10/18 01:27:59;;;;;;;23.10;18.67;;;15.10;99.90;;;;;;5038257;28;20469;-62
2022/10/18 01:30:46;;;;;;;21.53;19.23;;;15.10;99.90;;;;;;5038541;28;20505;-62
2022/10/18 01:33:21;;;;;;;28.03;20.53;;;15.00;99.90;;;;;;5038787;28;20433;-62
2022/10/18 01:35:54;;;;;;;24.83;22.33;;;15.00;99.90;;;;;;5038736;28;20800;-61
2022/10/18 01:38:24;;;;;;;28.63;25.50;;;15.00;99.90;;;;;;5038169;28;20471;-62
2022/10/18 01:40:53;;;;;;;30.30;25.90;;;15.00;99.90;;;;;;5038545;28;20455;-61
2022/10/18 01:43:23;;;;;;;33.30;28.10;;;15.00;99.90;;;;;;5038514;28;20557;-61
2022/10/18 01:45:54;;;;;;;30.80;27.63;;;15.00;99.90;;;;;;5037795;28;20597;-61
2022/10/18 01:48:22;;;;;;;29.27;26.20;;;15.10;99.90;;;;;;5037713;28;20466;-61
2022/10/18 01:50:50;;;;;;;27.47;24.37;;;15.10;99.90;;;;;;5038262;28;20527;-61
2022/10/18 01:53:31;;;;;;;29.97;26.60;;;15.00;99.90;;;;;;5038179;28;20474;-61
2022/10/18 01:56:25;;;;;;;27.83;24.87;;;15.00;99.90;;;;;;5037807;28;20442;-61
2022/10/18 01:59:05;;;;;;;24.60;21.53;;;15.00;99.90;;;;;;5035956;28;20897;-61
2022/10/18 02:01:43;;;;;;;22.57;19.77;;;15.00;99.90;;;;;;5038335;28;20455;-61
2022/10/18 02:04:23;;;;;;;20.40;18.30;;;15.10;99.90;;;;;;5037584;28;20473;-61
2022/10/18 02:06:57;;;;;;;18.43;16.63;;;15.10;99.90;;;;;;5037979;28;20477;-61
2022/10/18 02:09:33;;;;;;;17.40;15.60;;;15.00;99.90;;;;;;5038402;28;20495;-61
2022/10/18 02:12:03;;;;;;;16.67;14.03;;;15.00;99.90;;;;;;5037334;28;20494;-61
2022/10/18 02:14:32;;;;;;;15.10;13.60;;;15.00;99.90;;;;;;5037280;28;20467;-61
2022/10/18 02:17:05;;;;;;;15.30;12.77;;;15.00;99.90;;;;;;5037664;28;20499;-61
2022/10/18 02:19:38;;;;;;;14.93;13.50;;;15.00;99.90;;;;;;5037914;28;20860;-61
2022/10/18 02:22:08;;;;;;;14.83;12.90;;;15.00;99.90;;;;;;5037542;28;20971;-61
2022/10/18 02:24:39;;;;;;;13.90;12.60;;;15.00;99.90;;;;;;5037730;28;20457;-61
2022/10/18 02:27:06;;;;;;;14.70;12.30;;;15.00;99.90;;;;;;5037514;28;20438;-61
2022/10/18 02:29:34;;;;;;;18.20;16.27;;;15.00;99.90;;;;;;5037822;28;20462;-61
2022/10/18 02:32:09;;;;;;;20.63;17.50;;;15.00;99.90;;;;;;5037241;28;20852;-61
2022/10/18 02:34:40;;;;;;;19.33;17.17;;;15.00;99.90;;;;;;5037308;28;20880;-60
2022/10/18 02:37:08;;;;;;;18.30;16.37;;;15.00;99.90;;;;;;5037505;28;20468;-61
2022/10/18 02:39:40;;;;;;;17.87;16.00;;;15.00;99.90;;;;;;5036761;28;20438;-62
2022/10/18 02:42:11;;;;;;;16.97;15.40;;;15.00;99.90;;;;;;5036791;28;20455;-63
2022/10/18 02:44:39;;;;;;;17.77;15.40;;;14.80;99.90;;;;;;5037232;28;20475;-63
2022/10/18 02:47:09;;;;;;;17.60;15.50;;;14.80;99.90;;;;;;5037225;28;20463;-63
2022/10/18 02:49:38;;;;;;;18.10;15.00;;;14.80;99.90;;;;;;5037650;28;20509;-64
2022/10/18 02:52:05;;;;;;;17.47;15.80;;;14.90;99.90;;;;;;5037087;28;20501;-63
2022/10/18 02:54:32;;;;;;;15.73;14.03;;;14.90;99.90;;;;;;5037063;28;20437;-63
2022/10/18 02:56:59;;;;;;;13.37;12.07;;;14.90;99.90;;;;;;5037188;28;20904;-63
2022/10/18 02:59:27;;;;;;;11.77;10.27;;;14.90;99.90;;;;;;5037302;28;20466;-63
2022/10/18 03:01:54;;;;;;;11.60;9.57;;;14.90;99.90;;;;;;5036676;28;20459;-64
2022/10/18 03:04:25;;;;;;;18.03;12.83;;;14.90;99.90;;;;;;5037100;28;20467;-63
2022/10/18 03:06:52;;;;;;;14.67;12.93;;;14.80;99.90;;;;;;5037009;28;20465;-63
2022/10/18 03:09:19;;;;;;;14.77;12.60;;;14.80;99.90;;;;;;5037406;28;20469;-63
2022/10/18 03:11:49;;;;;;;15.57;13.97;;;14.80;99.90;;;;;;5037213;28;20466;-63
2022/10/18 03:14:17;;;;;;;14.00;11.80;;;14.80;99.90;;;;;;5037281;28;20463;-64
2022/10/18 03:16:44;;;;;;;16.07;14.03;;;14.80;99.90;;;;;;5037126;28;20490;-63
2022/10/18 03:19:11;;;;;;;12.53;11.20;;;14.80;99.90;;;;;;5037265;28;20475;-62
2022/10/18 03:21:42;;;;;;;15.90;11.10;;;14.80;99.90;;;;;;5036556;28;20478;-63
2022/10/18 03:24:12;;;;;;;11.53;9.73;;;14.90;99.90;;;;;;5036801;28;20797;-63
2022/10/18 03:26:39;;;;;;;16.73;9.73;;;14.90;99.90;;;;;;5036681;28;20499;-63
2022/10/18 03:29:06;;;;;;;13.60;10.80;;;14.90;99.90;;;;;;5037157;28;20520;-62
2022/10/18 03:31:34;;;;;;;12.03;10.83;;;14.80;99.90;;;;;;5036814;28;20537;-63
2022/10/18 03:34:01;;;;;;;12.00;10.70;;;14.90;99.90;;;;;;5036714;28;20534;-63
2022/10/18 03:36:28;;;;;;;12.60;9.97;;;14.90;99.90;;;;;;5036873;28;20516;-62
2022/10/18 03:38:57;;;;;;;12.10;9.87;;;14.90;99.90;;;;;;5035705;28;20469;-62
2022/10/18 03:41:27;;;;;;;12.40;9.20;;;14.90;99.90;;;;;;5036789;28;20451;-63
2022/10/18 03:43:57;;;;;;;10.80;8.90;;;14.90;99.90;;;;;;5036829;28;20521;-64
2022/10/18 03:46:24;;;;;;;9.40;8.40;;;14.90;99.90;;;;;;5039641;28;20517;-64
2022/10/18 03:48:51;;;;;;;9.33;7.70;;;14.90;99.90;;;;;;5040456;28;20469;-64
2022/10/18 03:51:18;;;;;;;8.53;7.30;;;14.90;99.90;;;;;;5040453;28;20465;-64
2022/10/18 03:53:46;;;;;;;8.10;7.30;;;14.90;99.90;;;;;;5040517;28;20459;-64
2022/10/18 03:56:17;;;;;;;8.27;6.73;;;14.90;99.90;;;;;;5040368;28;20880;-63
2022/10/18 03:58:49;;;;;;;10.87;8.10;;;15.00;99.90;;;;;;5040441;28;20474;-64
2022/10/18 04:01:16;;;;;;;7.40;6.67;;;15.00;99.90;;;;;;5040361;28;20513;-63
2022/10/18 04:03:43;;;;;;;11.00;6.60;;;14.90;99.90;;;;;;5040337;28;20747;-63
2022/10/18 04:06:10;;;;;;;7.77;6.93;;;14.90;99.90;;;;;;5039674;28;20444;-64
2022/10/18 04:08:37;;;;;;;8.83;6.27;;;14.90;99.90;;;;;;5039915;28;20765;-63
2022/10/18 04:11:08;;;;;;;8.73;7.40;;;14.90;99.90;;;;;;5040132;28;20497;-63
2022/10/18 04:13:39;;;;;;;11.57;7.70;;;15.00;99.90;;;;;;5040161;28;20524;-63
2022/10/18 04:16:07;;;;;;;8.47;7.60;;;15.00;99.90;;;;;;5039528;28;20803;-64
2022/10/18 04:18:34;;;;;;;7.80;6.50;;;15.00;99.90;;;;;;5039475;28;20470;-64
2022/10/18 04:21:03;;;;;;;10.00;7.77;;;15.00;99.90;;;;;;5039836;28;20557;-64
2022/10/18 04:23:33;;;;;;;8.10;7.23;;;15.00;99.90;;;;;;5039424;28;20463;-64
2022/10/18 04:26:01;;;;;;;9.83;7.40;;;14.90;99.90;;;;;;5039741;28;20474;-64
2022/10/18 04:28:28;;;;;;;11.03;7.83;;;14.80;99.90;;;;;;5039805;28;20585;-64
2022/10/18 04:30:56;;;;;;;9.10;8.20;;;14.80;99.90;;;;;;5039819;28;20487;-64
2022/10/18 04:33:24;;;;;;;9.63;7.90;;;14.80;99.90;;;;;;5039767;28;20472;-64
2022/10/18 04:35:52;;;;;;;9.07;7.47;;;14.90;99.90;;;;;;5039194;28;20463;-64
2022/10/18 04:38:20;;;;;;;8.60;7.17;;;14.90;99.90;;;;;;5039552;28;20561;-65
2022/10/18 04:40:47;;;;;;;8.00;7.17;;;14.90;99.90;;;;;;5039478;28;20467;-64
2022/10/18 04:43:16;;;;;;;8.07;6.93;;;14.90;99.90;;;;;;5039549;28;20471;-64
2022/10/18 04:45:45;;;;;;;8.90;7.80;;;14.90;99.90;;;;;;5038744;28;20438;-64
2022/10/18 04:48:14;;;;;;;9.30;7.07;;;14.90;99.90;;;;;;5038899;28;20733;-64
2022/10/18 04:50:41;;;;;;;9.53;8.10;;;15.00;99.90;;;;;;5039108;28;20463;-64
2022/10/18 04:53:11;;;;;;;11.77;8.27;;;15.00;99.90;;;;;;5038327;28;20744;-64
2022/10/18 04:55:44;;;;;;;8.73;7.10;;;15.00;99.90;;;;;;5039048;28;20876;-64
2022/10/18 04:58:11;;;;;;;10.07;7.60;;;15.00;99.90;;;;;;5037992;28;20502;-62
2022/10/18 05:00:39;;;;;;;9.80;7.13;;;15.00;99.90;;;;;;5039172;28;20876;-63
2022/10/18 05:03:06;;;;;;;8.87;6.50;;;15.00;99.90;;;;;;5039008;28;20553;-63
2022/10/18 05:05:34;;;;;;;8.97;7.10;;;15.00;99.90;;;;;;5039025;28;20475;-62
2022/10/18 05:08:02;;;;;;;9.67;7.33;;;15.00;99.90;;;;;;5038119;28;20778;-62
2022/10/18 05:10:32;;;;;;;9.30;7.67;;;14.90;99.90;;;;;;5038753;28;20892;-62
2022/10/18 05:13:00;;;;;;;10.00;8.40;;;15.00;99.90;;;;;;5038530;28;20838;-62
2022/10/18 05:15:29;;;;;;;8.93;7.93;;;15.00;99.90;;;;;;5038529;28;20491;-62
2022/10/18 05:17:56;;;;;;;7.80;7.00;;;15.00;99.90;;;;;;5037320;28;20462;-62
2022/10/18 05:20:24;;;;;;;10.20;8.83;;;15.00;99.90;;;;;;5037253;28;20558;-62
2022/10/18 05:22:52;;;;;;;9.43;7.63;;;15.00;99.90;;;;;;5037640;28;20466;-62
2022/10/18 05:25:20;;;;;;;10.33;8.43;;;15.00;99.90;;;;;;5038019;28;20477;-62
2022/10/18 05:27:47;;;;;;;10.07;8.57;;;14.90;99.90;;;;;;5038304;28;20509;-62
2022/10/18 05:30:14;;;;;;;9.03;8.13;;;15.00;99.90;;;;;;5038340;28;20807;-62
2022/10/18 05:32:41;;;;;;;10.00;8.00;;;15.00;99.90;;;;;;5038685;28;20477;-62
2022/10/18 05:35:09;;;;;;;10.93;9.47;;;15.00;99.90;;;;;;5038846;28;20490;-62
2022/10/18 05:37:38;;;;;;;12.50;7.83;;;15.00;99.90;;;;;;5038592;28;20750;-63
2022/10/18 05:40:08;;;;;;;10.27;9.20;;;15.00;99.90;;;;;;5055607;28;20458;-63
2022/10/18 05:42:35;;;;;;;12.97;8.53;;;15.00;99.90;;;;;;5057649;28;20452;-63
2022/10/18 05:45:02;;;;;;;14.00;10.57;;;15.00;99.90;;;;;;5057222;28;20466;-63
2022/10/18 05:47:29;;;;;;;11.50;9.03;;;15.10;99.90;;;;;;5056855;28;20462;-63
2022/10/18 05:49:57;;;;;;;10.83;9.60;;;15.10;99.90;;;;;;5056806;28;20552;-62
2022/10/18 05:52:24;;;;;;;12.57;9.53;;;15.10;99.90;;;;;;5056775;28;20567;-63
2022/10/18 05:54:51;;;;;;;9.90;8.90;;;15.10;99.90;;;;;;5056909;28;20900;-63
2022/10/18 05:57:25;;;;;;;10.07;8.40;;;15.10;99.90;;;;;;5057582;28;20461;-63
2022/10/18 05:59:52;;;;;;;10.87;9.37;;;15.10;99.90;;;;;;5057528;28;20467;-62
2022/10/18 06:02:19;;;;;;;10.17;8.83;;;15.10;99.90;;;;;;5056166;28;20899;-62
2022/10/18 06:04:46;;;;;;;11.60;7.27;;;15.10;99.90;;;;;;5056239;28;20469;-62
2022/10/18 06:07:13;;;;;;;11.30;8.63;;;15.10;99.90;;;;;;5055487;28;20458;-62
2022/10/18 06:09:40;;;;;;;10.43;7.60;;;15.10;99.90;;;;;;5055876;28;20553;-62
2022/10/18 06:12:10;;;;;;;9.37;7.23;;;15.20;99.90;;;;;;5056281;28;20584;-63
2022/10/18 06:14:42;;;;;;;10.23;8.43;;;15.20;99.90;;;;;;5057102;28;20441;-63
2022/10/18 06:17:09;;;;;;;10.97;9.17;;;15.20;99.90;;;;;;5057391;28;20786;-63
2022/10/18 06:19:36;;;;;;;10.00;7.03;;;15.20;99.90;;;;;;5057429;28;20858;-63
2022/10/18 06:22:06;;;;;;;11.43;8.60;;;15.10;99.90;;;;;;5056758;28;20458;-62
2022/10/18 06:24:33;;;;;;;10.67;9.30;;;15.20;99.90;;;;;;5057667;28;20472;-62
2022/10/18 06:27:07;;;;;;;10.87;9.40;;;15.20;99.90;;;;;;5057590;28;20462;-62
2022/10/18 06:29:35;;;;;;;11.27;9.30;;;15.20;99.90;;;;;;5057301;28;20540;-62
2022/10/18 06:32:07;;;;;;;12.03;8.80;;;15.20;99.90;;;;;;5056988;28;20786;-62
2022/10/18 06:34:37;;;;;;;15.20;10.23;;;15.20;99.90;;;;;;5057245;28;20462;-62
2022/10/18 06:37:08;;;;;;;19.33;13.87;;;15.20;99.90;;;;;;5057444;28;20436;-62
2022/10/18 06:39:35;;;;;;;37.67;19.90;;;15.10;99.90;;;;;;5057789;28;20466;-62
2022/10/18 06:42:02;;;;;;;46.07;24.07;;;15.10;99.90;;;;;;5056056;28;20481;-62
2022/10/18 06:44:30;;;;;;;49.53;23.13;;;15.10;99.90;;;;;;5055282;28;20458;-62
2022/10/18 06:46:58;;;;;;;51.63;26.00;;;15.10;99.90;;;;;;5055121;28;20480;-62
2022/10/18 06:49:26;;;;;;;57.17;28.23;;;15.00;99.90;;;;;;5055561;28;20469;-62
2022/10/18 06:51:54;;;;;;;56.23;26.20;;;15.10;99.90;;;;;;5055853;28;20485;-62
2022/10/18 06:54:21;;;;;;;54.80;26.73;;;15.10;99.90;;;;;;5056361;28;20464;-62
2022/10/18 06:56:48;;;;;;;59.97;29.77;;;15.20;99.90;;;;;;5056273;28;20902;-62
2022/10/18 06:59:16;;;;;;;54.57;27.27;;;15.20;99.90;;;;;;5056829;28;20882;-62
2022/10/18 07:01:46;;;;;;;59.10;29.17;;;15.20;99.90;;;;;;5056773;28;20543;-62
2022/10/18 07:04:24;;;;;;;63.93;30.43;;;15.20;99.90;;;;;;5055481;28;20557;-62
2022/10/18 07:06:54;;;;;;;53.70;28.00;;;15.20;99.90;;;;;;5055506;28;20465;-62
2022/10/18 07:09:21;;;;;;;80.47;31.37;;;15.20;99.90;;;;;;5055606;28;20466;-62
2022/10/18 07:11:52;;;;;;;71.57;31.30;;;15.30;99.90;;;;;;5055719;28;20797;-62
2022/10/18 07:14:19;;;;;;;64.70;30.00;;;15.30;99.90;;;;;;5055883;28;20466;-62
2022/10/18 07:16:46;;;;;;;60.40;29.13;;;15.30;99.90;;;;;;5055855;28;20497;-62
2022/10/18 07:19:13;;;;;;;59.83;29.40;;;15.30;99.90;;;;;;5056295;28;20462;-62
2022/10/18 07:21:41;;;;;;;63.77;29.17;;;15.20;99.90;;;;;;5060953;28;20901;-62
2022/10/18 07:24:09;;;;;;;59.17;29.43;;;15.20;99.90;;;;;;5059789;28;20473;-62
2022/10/18 07:26:36;;;;;;;63.07;32.07;;;15.10;99.90;;;;;;5060108;28;20478;-62
2022/10/18 07:29:09;;;;;;;57.73;30.40;;;15.10;99.90;;;;;;5060760;28;20468;-62
2022/10/18 07:31:37;;;;;;;59.97;30.17;;;15.20;99.90;;;;;;5061165;28;20463;-62
2022/10/18 07:34:07;;;;;;;59.57;30.37;;;15.20;99.90;;;;;;5061032;28;20883;-62
2022/10/18 07:36:34;;;;;;;68.00;31.27;;;15.20;99.90;;;;;;5060875;28;20464;-62
2022/10/18 07:39:01;;;;;;;71.13;32.30;;;15.30;99.90;;;;;;5060758;28;20548;-62
2022/10/18 07:41:32;;;;;;;62.70;33.40;;;15.20;99.90;;;;;;5060684;28;20753;-62
2022/10/18 07:44:00;;;;;;;61.87;32.87;;;15.20;99.90;;;;;;5059568;28;20579;-62
2022/10/18 07:46:28;;;;;;;71.50;32.93;;;15.20;99.90;;;;;;5060494;28;20887;-62
2022/10/18 07:48:58;;;;;;;63.37;32.00;;;15.20;99.90;;;;;;5060433;28;20475;-62
2022/10/18 07:51:26;;;;;;;65.87;31.17;;;15.20;99.90;;;;;;5060342;28;20767;-62
2022/10/18 07:53:54;;;;;;;56.17;29.40;;;15.20;99.90;;;;;;5059273;28;20544;-62
2022/10/18 07:56:22;;;;;;;63.00;30.00;;;15.20;99.90;;;;;;5059922;28;20468;-62
2022/10/18 07:58:53;;;;;;;61.23;31.70;;;15.20;99.90;;;;;;5059420;28;20470;-62
2022/10/18 08:01:26;;;;;;;62.67;31.63;;;15.20;99.90;;;;;;5060825;28;20523;-62
2022/10/18 08:03:54;;;;;;;61.87;30.40;;;15.20;99.90;;;;;;5059665;28;20451;-62
2022/10/18 08:06:23;;;;;;;60.83;30.40;;;15.20;99.90;;;;;;5059840;28;20461;-62
2022/10/18 08:08:53;;;;;;;61.67;29.83;;;15.30;99.90;;;;;;5059829;28;20466;-61
2022/10/18 08:11:23;;;;;;;53.43;29.17;;;15.20;99.90;;;;;;5060184;28;20483;-62
2022/10/18 08:13:55;;;;;;;61.97;30.73;;;15.20;99.90;;;;;;5059297;28;20596;-62
2022/10/18 08:16:25;;;;;;;59.17;30.93;;;15.20;99.90;;;;;;5059216;28;20465;-61
2022/10/18 08:18:52;;;;;;;62.10;29.53;;;15.20;99.90;;;;;;5058690;28;20436;-62
2022/10/18 08:21:21;;;;;;;60.60;31.50;;;15.20;99.90;;;;;;5058780;28;20556;-62
2022/10/18 08:23:52;;;;;;;62.10;31.40;;;15.30;99.90;;;;;;5058357;28;20437;-62
2022/10/18 08:26:21;;;;;;;56.47;29.87;;;15.30;99.90;;;;;;5058577;28;20437;-61
2022/10/18 08:28:53;;;;;;;62.57;32.37;;;15.20;99.90;;;;;;5058453;28;20447;-62
2022/10/18 08:31:21;;;;;;;55.40;29.23;;;15.20;99.90;;;;;;5058292;28;20462;-62
2022/10/18 08:33:48;;;;;;;52.43;29.83;;;15.20;99.90;;;;;;5058394;28;21032;-62
2022/10/18 08:36:18;;;;;;;54.63;29.10;;;15.20;99.90;;;;;;5058170;28;20484;-61
2022/10/18 08:38:48;;;;;;;54.13;30.73;;;15.30;99.90;;;;;;5058397;28;20819;-62
2022/10/18 08:41:30;;;;;;;55.07;30.33;;;15.30;99.90;;;;;;5057726;28;20466;-61
2022/10/18 08:44:07;;;;;;;49.60;29.67;;;15.40;99.90;;;;;;5058171;28;20512;-61
2022/10/18 08:46:37;;;;;;;60.07;31.90;;;15.40;99.90;;;;;;5058434;28;20782;-61
2022/10/18 08:49:06;;;;;;;62.73;30.90;;;15.40;99.90;;;;;;5058166;28;20466;-62
2022/10/18 08:51:39;;;;;;;64.80;32.40;;;15.30;99.90;;;;;;5058360;28;20444;-61
2022/10/18 08:54:11;;;;;;;55.80;30.97;;;15.30;99.90;;;;;;5058063;28;20898;-61
2022/10/18 08:56:42;;;;;;;61.73;33.10;;;15.30;99.90;;;;;;5058513;28;20458;-61
2022/10/18 08:59:12;;;;;;;55.60;30.33;;;15.30;99.90;;;;;;5058081;28;20444;-62
2022/10/18 09:01:47;;;;;;;62.20;32.90;;;15.30;99.90;;;;;;5057930;28;20533;-62
2022/10/18 09:04:34;;;;;;;62.13;32.87;;;15.30;99.90;;;;;;5057572;28;20457;-62
2022/10/18 09:07:22;;;;;;;61.33;30.90;;;15.20;99.90;;;;;;5057311;28;20465;-63
2022/10/18 09:09:55;;;;;;;52.77;30.50;;;15.20;99.90;;;;;;5057677;28;20956;-63
2022/10/18 09:12:50;;;;;;;57.90;33.10;;;15.30;99.90;;;;;;5057715;28;20486;-63
2022/10/18 09:15:29;;;;;;;53.97;29.03;;;15.30;99.90;;;;;;5051013;28;187572;-62
2022/10/18 09:18:12;;;;;;;49.60;28.80;;;15.20;99.90;;;;;;5057952;28;20754;-62
2022/10/18 09:20:49;;;;;;;52.83;30.30;;;15.30;99.90;;;;;;5058922;28;20457;-62
2022/10/18 09:23:20;;;;;;;51.27;29.33;;;15.40;99.90;;;;;;5057600;28;20442;-62
2022/10/18 09:25:50;;;;;;;61.93;31.80;;;15.60;99.90;;;;;;5058096;28;20435;-62
2022/10/18 09:28:26;;;;;;;51.63;30.83;;;15.70;99.90;;;;;;5057489;28;20446;-62
2022/10/18 09:31:04;;;;;;;52.90;30.70;;;15.80;99.90;;;;;;5054835;28;20806;-62
2022/10/18 09:33:44;;;;;;;48.00;28.23;;;16.00;99.90;;;;;;5053725;28;20568;-62
2022/10/18 09:36:16;;;;;;;49.93;28.30;;;16.10;99.90;;;;;;5055274;28;20458;-62
2022/10/18 09:38:47;;;;;;;48.10;28.73;;;16.10;99.90;;;;;;5058040;28;20556;-62
2022/10/18 09:41:19;;;;;;;45.47;28.23;;;16.30;99.90;;;;;;5058506;28;20462;-62
2022/10/18 09:43:54;;;;;;;46.80;30.27;;;16.50;99.90;;;;;;5057720;28;20461;-62
2022/10/18 09:46:27;;;;;;;42.93;28.17;;;16.40;99.90;;;;;;5058217;28;20468;-62
2022/10/18 09:48:57;;;;;;;38.77;26.90;;;16.50;99.90;;;;;;5058399;28;20483;-62
2022/10/18 09:51:34;;;;;;;43.17;27.30;;;16.50;99.90;;;;;;5057414;28;20466;-62
2022/10/18 09:54:15;;;;;;;44.67;29.37;;;16.60;99.90;;;;;;5058209;28;20486;-61
2022/10/18 09:56:56;;;;;;;42.40;27.57;;;16.70;99.90;;;;;;5057960;28;20470;-62
2022/10/18 09:59:41;;;;;;;40.60;28.20;;;16.80;99.90;;;;;;5058010;28;20469;-62
2022/10/18 10:02:14;;;;;;;34.50;25.90;;;16.80;99.90;;;;;;5057810;28;20757;-62
2022/10/18 10:04:45;;;;;;;35.83;26.03;;;16.70;99.90;;;;;;5057469;28;20462;-62
2022/10/18 10:07:16;;;;;;;40.10;26.57;;;16.60;99.90;;;;;;5058288;28;20466;-62
2022/10/18 10:09:49;;;;;;;39.37;27.27;;;16.60;99.90;;;;;;5058275;28;20535;-62
2022/10/18 10:12:30;;;;;;;38.10;27.83;;;16.60;99.90;;;;;;5057927;28;20869;-61
2022/10/18 10:15:17;;;;;;;38.43;27.20;;;16.70;99.90;;;;;;5057970;28;20466;-62
2022/10/18 10:17:57;;;;;;;35.83;26.80;;;16.90;99.90;;;;;;5057672;28;20511;-62
2022/10/18 10:20:30;;;;;;;34.13;26.00;;;17.10;99.90;;;;;;5057023;28;20512;-61
2022/10/18 10:23:16;;;;;;;36.93;27.37;;;17.20;99.90;;;;;;5056448;28;20454;-61
2022/10/18 10:25:50;;;;;;;30.80;25.27;;;17.10;99.90;;;;;;5056829;28;20428;-61
2022/10/18 10:28:23;;;;;;;36.90;26.43;;;17.10;99.90;;;;;;5056801;28;20766;-61
2022/10/18 10:30:51;;;;;;;35.83;27.30;;;17.10;99.90;;;;;;5057126;28;20425;-61
2022/10/18 10:33:37;;;;;;;36.70;27.67;;;17.20;99.90;;;;;;5057119;28;20924;-61
2022/10/18 10:36:17;;;;;;;32.30;25.90;;;17.40;99.90;;;;;;5055132;28;20540;-61
2022/10/18 10:38:44;;;;;;;34.13;27.80;;;17.10;99.90;;;;;;5056193;28;20442;-61
2022/10/18 10:41:20;;;;;;;36.33;28.00;;;17.30;99.90;;;;;;5057086;28;20437;-61
2022/10/18 10:43:51;;;;;;;37.40;28.63;;;18.10;99.90;;;;;;5057141;28;20884;-60
2022/10/18 10:46:21;;;;;;;34.40;25.43;;;18.80;99.90;;;;;;5056971;28;20549;-61
2022/10/18 10:48:54;;;;;;;30.43;25.30;;;19.30;99.90;;;;;;5056267;28;20441;-62
2022/10/18 10:51:32;;;;;;;36.23;29.60;;;19.70;99.90;;;;;;5054543;28;20893;-62
2022/10/18 10:54:10;;;;;;;30.70;25.83;;;20.20;99.90;;;;;;5055596;28;20494;-62
2022/10/18 10:56:50;;;;;;;35.33;28.23;;;20.10;99.90;;;;;;5056391;28;20498;-62
2022/10/18 10:59:20;;;;;;;30.83;27.07;;;19.90;99.90;;;;;;5056796;28;20466;-62
2022/10/18 11:01:50;;;;;;;33.57;26.43;;;19.80;1.00;;;;;;5056553;28;20462;-62
2022/10/18 11:04:31;;;;;;;30.63;26.23;;;19.50;99.90;;;;;;5056153;28;20457;-61
2022/10/18 11:07:07;;;;;;;29.60;25.30;;;19.30;99.90;;;;;;5056189;28;20477;-62
2022/10/18 11:09:43;;;;;;;31.03;27.00;;;19.30;99.90;;;;;;5057380;28;20477;-62
2022/10/18 11:12:25;;;;;;;26.43;23.60;;;19.20;99.90;;;;;;5055734;28;20538;-62
2022/10/18 11:14:59;;;;;;;28.80;24.33;;;18.90;99.90;;;;;;5056674;28;20493;-62
2022/10/18 11:17:34;;;;;;;28.03;24.90;;;18.90;99.90;;;;;;5056764;28;20458;-62
2022/10/18 11:20:26;;;;;;;27.93;24.60;;;18.90;99.90;;;;;;5055108;28;20454;-62
2022/10/18 11:23:02;;;;;;;29.20;24.07;;;18.80;67.60;;;;;;5054565;28;20458;-62
2022/10/18 11:25:55;;;;;;;30.50;24.60;;;18.90;99.90;;;;;;5054311;28;21110;-62
2022/10/18 11:28:31;;;;;;;31.87;25.27;;;18.80;80.20;;;;;;5049104;28;20444;-62
2022/10/18 11:31:12;;;;;;;30.83;24.40;;;19.10;99.90;;;;;;5054394;28;20458;-62
2022/10/18 11:33:51;;;;;;;24.57;21.90;;;19.20;13.90;;;;;;5055923;28;20941;-62
2022/10/18 11:36:29;;;;;;;29.53;24.67;;;19.40;1.00;;;;;;5055861;28;20530;-62
2022/10/18 11:39:01;;;;;;;35.93;27.70;;;18.90;1.00;;;;;;5056182;28;20436;-62
2022/10/18 11:41:34;;;;;;;37.50;28.30;;;18.80;99.90;;;;;;5054652;28;20561;-62
2022/10/18 11:44:03;;;;;;;36.00;29.40;;;18.70;99.90;;;;;;5052465;28;20469;-62
2022/10/18 11:46:45;;;;;;;37.27;30.40;;;18.60;63.10;;;;;;5054614;28;20512;-62
2022/10/18 11:49:32;;;;;;;40.60;33.27;;;18.40;20.10;;;;;;5055036;28;20436;-62
2022/10/18 11:52:08;;;;;;;37.43;29.33;;;18.40;40.70;;;;;;5055167;28;20462;-62
2022/10/18 11:55:08;;;;;;;35.17;30.53;;;19.20;1.00;;;;;;5054719;28;20468;-62
2022/10/18 11:57:46;;;;;;;41.53;31.87;;;19.90;1.00;;;;;;5056731;28;20441;-62
2022/10/18 12:00:27;;;;;;;43.53;33.23;;;19.50;1.00;;;;;;5056285;28;20466;-62
2022/10/18 12:03:18;;;;;;;39.73;31.90;;;19.00;1.00;;;;;;5056412;28;20470;-62
2022/10/18 12:05:48;;;;;;;40.30;33.27;;;18.30;1.00;;;;;;5057244;28;20466;-62
2022/10/18 12:08:22;;;;;;;43.73;32.93;;;17.60;99.90;;;;;;5060144;28;20843;-62
2022/10/18 12:10:52;;;;;;;40.77;32.13;;;17.50;99.90;;;;;;5059885;28;20802;-62
2022/10/18 12:13:25;;;;;;;43.27;32.13;;;17.50;1.00;;;;;;5058734;28;20499;-62
2022/10/18 12:15:55;;;;;;;37.30;31.93;;;17.70;99.90;;;;;;5059758;28;20915;-62
2022/10/18 12:18:25;;;;;;;38.83;29.03;;;17.80;99.90;;;;;;5059927;28;20443;-62
2022/10/18 12:20:56;;;;;;;36.07;30.03;;;17.70;62.60;;;;;;5059518;28;20832;-63
2022/10/18 12:23:37;;;;;;;32.00;26.73;;;17.90;99.90;;;;;;5059798;28;20436;-63
2022/10/18 12:26:07;;;;;;;28.73;24.77;;;18.70;28.60;;;;;;5059699;28;20473;-63
2022/10/18 12:28:45;;;;;;;26.90;23.87;;;19.70;1.00;;;;;;5058513;28;20443;-62
2022/10/18 12:31:22;;;;;;;28.33;23.53;;;19.50;1.00;;;;;;5059570;28;20496;-62
2022/10/18 12:33:54;;;;;;;26.07;23.27;;;20.00;1.00;;;;;;5057703;28;20493;-62
2022/10/18 12:36:55;;;;;;;29.40;24.17;;;20.10;1.00;;;;;;5059390;28;20530;-62
2022/10/18 12:39:27;;;;;;;26.73;22.40;;;20.30;1.00;;;;;;5058137;28;20913;-62
2022/10/18 12:41:56;;;;;;;31.77;24.90;;;19.80;1.00;;;;;;5057655;28;20754;-62
2022/10/18 12:44:30;;;;;;;29.63;25.20;;;19.70;1.00;;;;;;5058339;28;20474;-62
2022/10/18 12:46:59;;;;;;;26.90;23.13;;;19.50;1.00;;;;;;5059580;28;20483;-62
2022/10/18 12:49:30;;;;;;;31.80;25.53;;;18.60;1.00;;;;;;5059656;28;20470;-62
2022/10/18 12:52:00;;;;;;;33.23;26.40;;;18.40;1.00;;;;;;5058490;28;20511;-62
2022/10/18 12:54:31;;;;;;;30.93;25.63;;;18.90;1.00;;;;;;5059072;28;20564;-62
2022/10/18 12:56:59;;;;;;;31.17;26.60;;;19.00;1.00;;;;;;5058031;28;20440;-62